Time;durP1;ratioP1;P1;durP2;ratioP2;P2;SDS_P1;SDS_P2;PMS_P1;PMS_P2;Temp;Humidity;BMP_temperature;BMP_pressure;BME280_temperature;BME280_humidity;BME280_pressure;Samples;Min_cycle;Max_cycle;Signal;HPM_P1;HPM_P2
2022/02/07 00:00:17;;;;;;;4.82;0.80;;;4.10;95.00;;;;;;2103893;28;20040;-90
2022/02/07 00:01:27;;;;;;;6.05;1.10;;;4.00;94.90;;;;;;2096409;28;20036;-91
2022/02/07 00:02:40;;;;;;;3.38;0.82;;;4.00;95.00;;;;;;2099210;28;20037;-90
2022/02/07 00:03:47;;;;;;;4.72;0.93;;;4.10;95.00;;;;;;2092414;28;20040;-90
2022/02/07 00:04:48;;;;;;;4.78;0.60;;;4.00;95.00;;;;;;2092796;28;20040;-90
2022/02/07 00:05:49;;;;;;;4.35;0.80;;;4.10;95.00;;;;;;2101024;28;20472;-90
2022/02/07 00:06:49;;;;;;;5.32;0.95;;;4.10;95.00;;;;;;2092526;28;20390;-90
2022/02/07 00:07:50;;;;;;;5.30;1.00;;;4.10;95.00;;;;;;2092422;28;20041;-91
2022/02/07 00:08:52;;;;;;;5.25;1.00;;;4.10;95.00;;;;;;2093152;28;20072;-91
2022/02/07 00:09:52;;;;;;;5.32;0.80;;;4.10;95.00;;;;;;2091261;28;20051;-89
2022/02/07 00:10:53;;;;;;;7.10;0.90;;;4.10;95.00;;;;;;2089390;28;20419;-90
2022/02/07 00:11:53;;;;;;;4.97;1.23;;;4.10;95.00;;;;;;2094945;28;20044;-90
2022/02/07 00:12:54;;;;;;;5.65;1.02;;;4.10;95.00;;;;;;2099502;28;20111;-90
2022/02/07 00:13:55;;;;;;;5.50;1.08;;;4.10;95.00;;;;;;2102069;28;20052;-90
2022/02/07 00:14:55;;;;;;;7.93;1.30;;;4.10;95.00;;;;;;2084131;28;20041;-90
2022/02/07 00:15:56;;;;;;;4.20;0.80;;;4.10;95.00;;;;;;2084622;28;20025;-91
2022/02/07 00:16:57;;;;;;;5.80;1.05;;;4.10;95.00;;;;;;2097300;28;20064;-90
2022/02/07 00:17:58;;;;;;;3.50;0.98;;;4.20;95.00;;;;;;2096229;28;20044;-91
2022/02/07 00:18:58;;;;;;;8.00;1.00;;;4.20;95.00;;;;;;2105938;28;20028;-90
2022/02/07 00:20:00;;;;;;;9.57;1.27;;;4.20;95.00;;;;;;2099665;28;20411;-90
2022/02/07 00:21:01;;;;;;;7.10;1.20;;;4.20;94.90;;;;;;2081079;28;20038;-89
2022/02/07 00:22:03;;;;;;;11.23;2.17;;;4.20;94.90;;;;;;2088847;28;20041;-89
2022/02/07 00:23:04;;;;;;;8.27;1.50;;;4.20;94.80;;;;;;2097204;28;20043;-89
2022/02/07 00:24:05;;;;;;;8.57;1.52;;;4.30;94.70;;;;;;2092711;28;20041;-90
2022/02/07 00:25:06;;;;;;;8.80;1.45;;;4.20;94.70;;;;;;2095129;28;20399;-89
2022/02/07 00:26:07;;;;;;;10.48;1.55;;;4.20;94.50;;;;;;2092441;28;20029;-90
2022/02/07 00:27:07;;;;;;;5.65;1.02;;;4.20;94.50;;;;;;2096621;28;20445;-89
2022/02/07 00:28:08;;;;;;;10.68;1.52;;;4.20;94.50;;;;;;2088478;28;20041;-90
2022/02/07 00:29:09;;;;;;;7.18;1.20;;;4.10;94.50;;;;;;2072166;28;20058;-90
2022/02/07 00:30:12;;;;;;;6.50;1.20;;;4.10;94.50;;;;;;2081756;28;20488;-90
2022/02/07 00:31:13;;;;;;;6.60;1.05;;;4.10;94.50;;;;;;2090967;28;20021;-90
2022/02/07 00:32:13;;;;;;;5.05;0.95;;;4.10;94.50;;;;;;2074613;28;20049;-90
2022/02/07 00:33:14;;;;;;;4.82;0.80;;;4.10;94.50;;;;;;2070178;28;20030;-89
2022/02/07 00:34:15;;;;;;;6.32;0.95;;;4.00;94.40;;;;;;2082471;28;20076;-89
2022/02/07 00:35:18;;;;;;;5.95;0.90;;;4.00;94.40;;;;;;2090052;28;20086;-89
2022/02/07 00:36:19;;;;;;;5.70;0.82;;;4.00;94.50;;;;;;2082871;28;20034;-90
2022/02/07 00:37:23;;;;;;;4.85;0.82;;;3.90;94.40;;;;;;2097151;28;20064;-90
2022/02/07 00:38:25;;;;;;;5.13;0.68;;;3.90;94.50;;;;;;2095539;28;20517;-90
2022/02/07 00:39:34;;;;;;;2.30;0.50;;;3.90;94.50;;;;;;2083353;28;20045;-89
2022/02/07 00:42:02;;;;;;;5.53;0.70;;;3.80;94.50;;;;;;2090571;28;20146;-90
2022/02/07 00:43:15;;;;;;;4.13;0.68;;;3.90;94.50;;;;;;2093137;28;20029;-89
2022/02/07 00:44:18;;;;;;;4.43;0.60;;;3.80;94.50;;;;;;2094879;28;20037;-90
2022/02/07 00:46:47;;;;;;;2.58;0.50;;;3.80;94.50;;;;;;2090955;28;20463;-89
2022/02/07 00:47:47;;;;;;;3.00;0.55;;;3.80;94.50;;;;;;2098562;28;20045;-90
2022/02/07 00:48:48;;;;;;;3.20;0.50;;;3.80;94.50;;;;;;2090905;28;20518;-89
2022/02/07 00:49:48;;;;;;;3.05;0.68;;;3.70;94.50;;;;;;2098850;28;20418;-90
2022/02/07 00:50:50;;;;;;;3.38;0.50;;;3.70;94.40;;;;;;2083896;28;20044;-89
2022/02/07 00:51:51;;;;;;;2.88;0.57;;;3.70;94.50;;;;;;2072756;28;20042;-90
2022/02/07 00:52:51;;;;;;;2.45;0.60;;;3.70;94.50;;;;;;2087047;28;20038;-89
2022/02/07 00:53:52;;;;;;;3.08;0.50;;;3.70;94.50;;;;;;2074508;28;20065;-89
2022/02/07 00:54:53;;;;;;;5.20;0.47;;;3.70;94.50;;;;;;2073175;28;20066;-89
2022/02/07 00:55:54;;;;;;;3.33;0.40;;;3.70;94.60;;;;;;2073464;28;20081;-90
2022/02/07 00:56:55;;;;;;;3.15;0.50;;;3.70;94.40;;;;;;2087790;28;20060;-90
2022/02/07 00:57:55;;;;;;;3.88;0.70;;;3.70;94.40;;;;;;2082131;28;20033;-90
2022/02/07 00:58:56;;;;;;;3.72;0.60;;;3.70;94.40;;;;;;2081998;28;20045;-90
2022/02/07 00:59:56;;;;;;;5.45;0.60;;;3.70;94.40;;;;;;2081554;28;20080;-90
2022/02/07 01:00:57;;;;;;;1.50;0.40;;;3.70;94.40;;;;;;2088330;28;20518;-89
2022/02/07 01:01:58;;;;;;;4.85;0.82;;;3.80;94.40;;;;;;2088642;28;20041;-90
2022/02/07 01:02:58;;;;;;;3.90;1.02;;;3.70;94.30;;;;;;2074060;28;20034;-90
2022/02/07 01:03:59;;;;;;;4.82;0.60;;;3.70;94.30;;;;;;2090153;28;20029;-90
2022/02/07 01:05:00;;;;;;;6.60;0.73;;;3.70;94.30;;;;;;2083695;28;20049;-90
2022/02/07 01:06:01;;;;;;;4.97;0.88;;;3.80;94.30;;;;;;2089763;28;20454;-90
2022/02/07 01:07:04;;;;;;;3.78;0.70;;;3.70;94.30;;;;;;2099591;28;20048;-89
2022/02/07 01:08:05;;;;;;;3.55;0.60;;;3.80;94.30;;;;;;2097135;28;20040;-89
2022/02/07 01:09:19;;;;;;;4.55;0.80;;;3.70;94.30;;;;;;2100081;28;20040;-90
2022/02/07 01:15:07;;;;;;;6.47;1.00;;;3.70;94.30;;;;;;2083175;28;20080;-90
2022/02/07 01:16:43;;;;;;;7.13;1.00;;;3.70;94.20;;;;;;2093540;28;20040;-89
2022/02/07 01:21:46;;;;;;;5.22;0.90;;;3.70;94.30;;;;;;2091004;28;20033;-89
2022/02/07 01:23:45;;;;;;;5.55;0.90;;;3.70;94.30;;;;;;2088436;28;20052;-89
2022/02/07 01:47:51;;;;;;;7.05;1.25;;;3.60;94.30;;;;;;2086937;28;20041;-90
2022/02/07 01:52:36;;;;;;;5.15;0.85;;;3.60;94.30;;;;;;2094697;28;20046;-89
2022/02/07 01:54:45;;;;;;;7.45;1.00;;;3.60;94.30;;;;;;2077300;28;20045;-88
2022/02/07 01:55:51;;;;;;;5.50;1.08;;;3.60;94.30;;;;;;2090814;28;20047;-89
2022/02/07 01:56:52;;;;;;;6.25;1.30;;;3.60;94.20;;;;;;2082057;28;20107;-89
2022/02/07 01:57:52;;;;;;;4.68;1.02;;;3.70;94.30;;;;;;2090420;28;20471;-89
2022/02/07 01:58:53;;;;;;;7.00;1.08;;;3.60;94.30;;;;;;2088883;28;20037;-89
2022/02/07 01:59:54;;;;;;;5.65;1.00;;;3.70;94.30;;;;;;2089478;28;20557;-89
2022/02/07 02:00:54;;;;;;;9.07;1.20;;;3.70;94.30;;;;;;2090337;28;20079;-89
2022/02/07 02:01:55;;;;;;;9.57;1.02;;;3.60;94.30;;;;;;2088464;28;20061;-90
2022/02/07 02:02:56;;;;;;;5.78;0.88;;;3.70;94.30;;;;;;2089474;28;20044;-90
2022/02/07 02:03:56;;;;;;;5.10;1.00;;;3.70;94.30;;;;;;2098548;28;20036;-89
2022/02/07 02:04:57;;;;;;;6.80;1.50;;;3.70;94.30;;;;;;2082127;28;20041;-90
2022/02/07 02:06:01;;;;;;;7.57;1.10;;;3.70;94.20;;;;;;2073040;28;20074;-89
2022/02/07 02:07:03;;;;;;;7.65;1.10;;;3.70;94.30;;;;;;2089312;28;20032;-90
2022/02/07 02:08:08;;;;;;;8.48;1.23;;;3.70;94.30;;;;;;2089997;28;20040;-89
2022/02/07 02:09:08;;;;;;;6.22;0.98;;;3.70;94.20;;;;;;2090749;28;20029;-90
2022/02/07 02:10:10;;;;;;;5.53;0.90;;;3.70;94.20;;;;;;2089898;28;20073;-90
2022/02/07 02:11:11;;;;;;;5.60;0.80;;;3.70;94.20;;;;;;2080968;28;20487;-89
2022/02/07 02:12:12;;;;;;;3.72;0.85;;;3.80;94.30;;;;;;2083505;28;20041;-89
2022/02/07 02:13:17;;;;;;;5.03;0.95;;;3.80;94.20;;;;;;2089361;28;20497;-90
2022/02/07 02:14:36;;;;;;;4.90;1.25;;;3.80;94.20;;;;;;2090582;28;20048;-89
2022/02/07 02:15:55;;;;;;;7.05;1.00;;;3.80;94.30;;;;;;2081553;28;20112;-90
2022/02/07 02:21:56;;;;;;;4.55;0.93;;;3.80;94.20;;;;;;2090913;28;20047;-89
2022/02/07 02:37:51;;;;;;;9.10;1.30;;;3.80;94.20;;;;;;2105762;28;20085;-89
2022/02/07 02:45:27;;;;;;;14.05;2.08;;;3.80;94.20;;;;;;2088163;28;20025;-89
2022/02/07 02:45:34;;;;;;;8.77;1.52;;;3.80;94.10;;;;;;2090634;28;20124;-89
2022/02/07 02:46:35;;;;;;;10.85;1.95;;;3.80;94.20;;;;;;2081665;28;20041;-89
2022/02/07 02:47:36;;;;;;;7.57;1.60;;;3.80;94.20;;;;;;2087683;28;20025;-90
2022/02/07 02:48:41;;;;;;;10.55;1.67;;;3.80;94.30;;;;;;2089673;28;20534;-89
2022/02/07 02:49:47;;;;;;;8.15;1.58;;;3.80;94.30;;;;;;2089644;28;20040;-90
2022/02/07 02:50:51;;;;;;;8.10;1.38;;;3.70;94.30;;;;;;2091746;28;20140;-89
2022/02/07 02:51:51;;;;;;;6.55;1.38;;;3.80;94.40;;;;;;2095050;28;20025;-89
2022/02/07 02:52:52;;;;;;;8.50;1.33;;;3.70;94.40;;;;;;2076675;28;20038;-89
2022/02/07 02:53:53;;;;;;;6.55;1.23;;;3.70;94.40;;;;;;2072589;28;20127;-90
2022/02/07 02:54:53;;;;;;;7.68;1.48;;;3.70;94.50;;;;;;2089397;28;20037;-89
2022/02/07 02:55:54;;;;;;;7.80;1.20;;;3.70;94.50;;;;;;2098225;28;20149;-88
2022/02/07 02:56:54;;;;;;;8.38;1.17;;;3.70;94.50;;;;;;2104635;28;20028;-89
2022/02/07 02:57:56;;;;;;;7.35;1.10;;;3.70;94.60;;;;;;2104198;28;20035;-89
2022/02/07 02:58:56;;;;;;;4.65;1.10;;;3.70;94.60;;;;;;2091366;28;20041;-89
2022/02/07 02:59:57;;;;;;;6.18;1.25;;;3.70;94.60;;;;;;2077499;28;20038;-89
2022/02/07 03:00:57;;;;;;;9.80;1.45;;;3.70;94.60;;;;;;2075995;28;20042;-89
2022/02/07 03:01:58;;;;;;;7.65;1.30;;;3.70;94.70;;;;;;2081423;28;20484;-90
2022/02/07 03:02:59;;;;;;;8.13;1.35;;;3.70;94.70;;;;;;2097186;28;20041;-90
2022/02/07 03:04:00;;;;;;;7.03;1.30;;;3.70;94.70;;;;;;2089623;28;20029;-90
2022/02/07 03:05:01;;;;;;;8.25;1.58;;;3.70;94.70;;;;;;2085385;28;20036;-89
2022/02/07 03:06:02;;;;;;;6.88;1.30;;;3.70;94.70;;;;;;2098074;28;20414;-89
2022/02/07 03:07:03;;;;;;;10.75;1.60;;;3.70;94.70;;;;;;2097332;28;20052;-90
2022/02/07 03:08:04;;;;;;;6.32;1.35;;;3.70;94.80;;;;;;2095577;28;20036;-89
2022/02/07 03:09:13;;;;;;;7.63;1.48;;;3.70;94.80;;;;;;2097771;28;20047;-89
2022/02/07 03:10:23;;;;;;;5.80;1.10;;;3.70;94.80;;;;;;2083238;28;20065;-89
2022/02/07 03:11:25;;;;;;;;;;;3.70;95.10;;;;;;2074896;28;20426;-90
2022/02/07 03:12:28;;;;;;;6.82;1.30;;;3.60;94.80;;;;;;2089333;28;19923;-90
2022/02/07 03:14:37;;;;;;;6.72;1.00;;;3.60;94.80;;;;;;2098456;28;20131;-90
2022/02/07 03:16:57;;;;;;;9.80;1.25;;;3.70;94.80;;;;;;2085236;28;20220;-90
2022/02/07 03:17:58;;;;;;;7.68;1.38;;;3.70;94.80;;;;;;2073683;28;20484;-90
2022/02/07 03:18:58;;;;;;;7.75;1.05;;;3.60;94.80;;;;;;2080689;28;20030;-89
2022/02/07 03:19:59;;;;;;;5.60;1.27;;;3.60;94.80;;;;;;2078995;28;20435;-90
2022/02/07 03:21:00;;;;;;;11.02;1.35;;;3.60;94.80;;;;;;2089320;28;20033;-90
2022/02/07 03:22:01;;;;;;;8.18;1.35;;;3.70;94.80;;;;;;2094645;28;20053;-89
2022/02/07 03:23:01;;;;;;;7.78;1.10;;;3.70;94.80;;;;;;2093342;28;20068;-90
2022/02/07 03:24:02;;;;;;;6.60;1.35;;;3.70;94.80;;;;;;2094265;28;20053;-90
2022/02/07 03:25:03;;;;;;;7.85;1.20;;;3.70;94.80;;;;;;2096521;28;20115;-90
2022/02/07 03:26:04;;;;;;;8.15;1.40;;;3.70;94.80;;;;;;2098857;28;20045;-90
2022/02/07 03:27:05;;;;;;;8.10;1.33;;;3.70;94.80;;;;;;2092443;28;20037;-90
2022/02/07 03:28:05;;;;;;;6.68;1.15;;;3.70;94.80;;;;;;2081613;28;20060;-89
2022/02/07 03:29:07;;;;;;;7.53;1.30;;;3.70;94.80;;;;;;2089236;28;20037;-90
2022/02/07 03:30:08;;;;;;;7.40;1.40;;;3.70;94.80;;;;;;2091528;28;20040;-90
2022/02/07 03:31:09;;;;;;;8.75;1.38;;;3.70;94.80;;;;;;2098658;28;20033;-90
2022/02/07 03:32:09;;;;;;;6.28;1.10;;;3.70;94.80;;;;;;2097724;28;20032;-89
2022/02/07 03:33:10;;;;;;;7.65;0.90;;;3.70;94.70;;;;;;2089050;28;20056;-90
2022/02/07 03:34:11;;;;;;;7.28;1.27;;;3.70;94.70;;;;;;2097217;28;20036;-90
2022/02/07 03:35:12;;;;;;;6.85;1.00;;;3.70;94.70;;;;;;2093950;28;20025;-89
2022/02/07 03:36:13;;;;;;;9.13;1.52;;;3.80;94.70;;;;;;2088971;28;20558;-90
2022/02/07 03:37:14;;;;;;;8.20;1.40;;;3.70;94.70;;;;;;2082521;28;20240;-90
2022/02/07 03:38:15;;;;;;;6.75;1.27;;;3.80;94.70;;;;;;2094169;28;20036;-90
2022/02/07 03:39:15;;;;;;;9.77;1.17;;;3.80;94.70;;;;;;2102952;28;20044;-90
2022/02/07 03:40:16;;;;;;;5.80;1.13;;;3.80;94.70;;;;;;2089618;28;20480;-89
2022/02/07 03:41:17;;;;;;;5.05;1.08;;;3.80;94.60;;;;;;2092029;28;20037;-90
2022/02/07 03:42:18;;;;;;;8.20;1.20;;;3.80;94.60;;;;;;2086731;28;20037;-89
2022/02/07 03:43:19;;;;;;;7.18;1.38;;;3.80;94.60;;;;;;2087576;28;20095;-90
2022/02/07 03:44:19;;;;;;;5.18;1.30;;;3.80;94.60;;;;;;2092260;28;20036;-88
2022/02/07 03:45:20;;;;;;;6.70;1.10;;;3.80;94.60;;;;;;2078123;28;20089;-89
2022/02/07 03:46:21;;;;;;;11.35;1.92;;;3.90;94.60;;;;;;2082868;28;20976;-89
2022/02/07 03:47:21;;;;;;;9.38;1.55;;;3.90;94.60;;;;;;2092389;28;20037;-89
2022/02/07 03:48:23;;;;;;;8.63;1.30;;;3.90;94.50;;;;;;2096525;28;20058;-89
2022/02/07 03:49:23;;;;;;;8.55;1.70;;;3.90;94.50;;;;;;2097730;28;20032;-89
2022/02/07 03:50:24;;;;;;;5.47;0.98;;;3.90;94.50;;;;;;2091815;28;20064;-90
2022/02/07 03:51:25;;;;;;;6.75;1.20;;;4.00;94.50;;;;;;2097667;28;20041;-90
2022/02/07 03:52:28;;;;;;;6.53;1.30;;;4.00;94.40;;;;;;2105178;28;20036;-89
2022/02/07 03:53:29;;;;;;;6.32;1.30;;;4.00;94.40;;;;;;2087678;28;20029;-89
2022/02/07 03:54:30;;;;;;;4.93;1.05;;;4.10;94.30;;;;;;2085756;28;20120;-90
2022/02/07 03:55:30;;;;;;;7.28;1.33;;;4.10;94.30;;;;;;2106273;28;20440;-89
2022/02/07 03:56:31;;;;;;;9.98;1.73;;;4.10;94.30;;;;;;2097293;28;20462;-89
2022/02/07 03:57:32;;;;;;;6.28;1.25;;;4.10;94.30;;;;;;2095845;28;20100;-90
2022/02/07 03:58:33;;;;;;;8.35;1.40;;;4.10;94.20;;;;;;2098218;28;20052;-89
2022/02/07 03:59:33;;;;;;;10.20;1.80;;;4.20;94.20;;;;;;2095591;28;20086;-90
2022/02/07 04:00:35;;;;;;;4.82;1.00;;;4.20;94.20;;;;;;2106378;28;20072;-90
2022/02/07 04:01:36;;;;;;;7.38;1.58;;;4.20;94.10;;;;;;2103709;28;20135;-90
2022/02/07 04:02:42;;;;;;;9.05;1.90;;;4.20;94.10;;;;;;2091888;28;20532;-90
2022/02/07 04:03:43;;;;;;;8.45;1.58;;;4.30;93.90;;;;;;2086699;28;20037;-90
2022/02/07 04:04:48;;;;;;;6.93;1.40;;;4.30;94.00;;;;;;2088090;28;20446;-90
2022/02/07 04:06:55;;;;;;;8.88;1.92;;;4.30;94.20;;;;;;2089732;28;20123;-90
2022/02/07 04:07:57;;;;;;;6.70;1.20;;;4.30;93.90;;;;;;2090968;28;20041;-91
2022/02/07 04:09:02;;;;;;;9.27;1.83;;;4.30;93.80;;;;;;2097081;28;20036;-91
2022/02/07 04:10:03;;;;;;;8.55;1.45;;;4.40;93.80;;;;;;2094229;28;20110;-90
2022/02/07 04:11:16;;;;;;;7.53;1.15;;;4.40;93.70;;;;;;2085602;28;20204;-90
2022/02/07 04:12:21;;;;;;;9.55;1.50;;;4.40;93.70;;;;;;2082968;28;20046;-90
2022/02/07 04:13:28;;;;;;;9.93;1.50;;;4.40;93.70;;;;;;2090217;28;20041;-90
2022/02/07 04:14:30;;;;;;;6.32;1.30;;;4.50;93.70;;;;;;2093402;28;20215;-91
2022/02/07 04:15:31;;;;;;;8.15;1.40;;;4.50;93.60;;;;;;2086307;28;20037;-90
2022/02/07 04:16:37;;;;;;;6.90;1.30;;;4.50;93.60;;;;;;2089244;28;20068;-90
2022/02/07 04:17:43;;;;;;;8.38;1.30;;;4.50;93.60;;;;;;2090353;28;20064;-90
2022/02/07 04:18:58;;;;;;;6.32;1.45;;;4.50;93.90;;;;;;2090306;28;20053;-90
2022/02/07 04:19:59;;;;;;;7.75;1.55;;;4.50;93.60;;;;;;2090846;28;20025;-90
2022/02/07 04:21:02;;;;;;;9.93;1.85;;;4.50;93.50;;;;;;2090046;28;20415;-90
2022/02/07 04:22:06;;;;;;;7.97;1.80;;;4.60;93.60;;;;;;2101506;28;20619;-90
2022/02/07 04:23:06;;;;;;;6.40;1.45;;;4.50;93.50;;;;;;2088841;28;20033;-91
2022/02/07 04:24:07;;;;;;;7.55;1.20;;;4.60;93.50;;;;;;2081752;28;20087;-91
2022/02/07 04:25:08;;;;;;;9.38;1.33;;;4.60;93.60;;;;;;2081670;28;20029;-91
2022/02/07 04:26:08;;;;;;;9.60;1.30;;;4.60;93.50;;;;;;2085942;28;20053;-91
2022/02/07 04:27:09;;;;;;;9.73;1.35;;;4.60;93.50;;;;;;2089596;28;20068;-90
2022/02/07 04:28:10;;;;;;;10.20;1.48;;;4.60;93.50;;;;;;2080222;28;20064;-90
2022/02/07 04:29:11;;;;;;;10.32;1.42;;;4.60;93.40;;;;;;2081675;28;20423;-90
2022/02/07 04:30:12;;;;;;;10.82;1.65;;;4.60;93.40;;;;;;2080129;28;20034;-90
2022/02/07 04:31:13;;;;;;;8.20;2.00;;;4.60;93.40;;;;;;2081093;28;20430;-90
2022/02/07 04:32:13;;;;;;;7.43;1.30;;;4.60;93.30;;;;;;2089876;28;20060;-91
2022/02/07 04:33:14;;;;;;;7.82;1.35;;;4.60;93.40;;;;;;2087246;28;20041;-90
2022/02/07 04:34:15;;;;;;;8.65;1.50;;;4.70;93.40;;;;;;2083190;28;20046;-91
2022/02/07 04:35:15;;;;;;;10.15;1.58;;;4.70;93.40;;;;;;2084116;28;20060;-90
2022/02/07 04:36:16;;;;;;;11.80;1.90;;;4.70;93.30;;;;;;2089822;28;20530;-91
2022/02/07 04:37:17;;;;;;;11.35;2.30;;;4.70;93.30;;;;;;2089002;28;20423;-90
2022/02/07 04:38:18;;;;;;;10.52;1.50;;;4.70;93.20;;;;;;2093950;28;20047;-91
2022/02/07 04:39:19;;;;;;;10.50;2.03;;;4.70;93.10;;;;;;2088116;28;20080;-91
2022/02/07 04:40:19;;;;;;;7.82;1.35;;;4.70;93.10;;;;;;2080171;28;20044;-91
2022/02/07 04:41:22;;;;;;;12.13;1.70;;;4.80;93.10;;;;;;2090961;28;20052;-90
2022/02/07 04:42:25;;;;;;;9.00;2.42;;;4.80;93.10;;;;;;2096532;28;20043;-91
2022/02/07 04:43:26;;;;;;;6.78;1.38;;;4.80;93.10;;;;;;2099006;28;20037;-91
2022/02/07 04:44:35;;;;;;;9.68;1.80;;;4.80;93.10;;;;;;2100210;28;20047;-91
2022/02/07 04:45:50;;;;;;;7.18;1.30;;;4.80;93.30;;;;;;2092048;28;20134;-91
2022/02/07 04:47:18;;;;;;;10.77;1.48;;;4.90;93.10;;;;;;2089440;28;20037;-90
2022/02/07 04:50:00;;;;;;;6.10;1.42;;;4.90;93.00;;;;;;2099032;28;20044;-91
2022/02/07 04:52:25;;;;;;;9.30;1.33;;;4.90;93.00;;;;;;2088348;28;20410;-91
2022/02/07 04:53:40;;;;;;;11.43;1.60;;;4.90;93.00;;;;;;2098479;28;20088;-91
2022/02/07 04:54:52;;;;;;;11.73;1.67;;;4.90;92.90;;;;;;2098201;28;20091;-90
2022/02/07 04:58:14;;;;;;;9.45;1.70;;;4.90;92.90;;;;;;2099109;28;20123;-91
2022/02/07 04:59:18;;;;;;;7.95;1.45;;;4.90;92.90;;;;;;2096283;28;20041;-90
2022/02/07 05:03:00;;;;;;;8.20;1.50;;;5.00;92.90;;;;;;2099865;28;20071;-90
2022/02/07 05:03:52;;;;;;;10.80;1.60;;;5.00;92.90;;;;;;2089807;28;20112;-91
2022/02/07 05:14:11;;;;;;;5.55;1.10;;;5.00;92.80;;;;;;2087591;28;20533;-91
2022/02/07 05:15:12;;;;;;;8.40;1.40;;;5.00;92.80;;;;;;2092860;28;20083;-91
2022/02/07 05:16:28;;;;;;;6.68;1.40;;;5.10;92.90;;;;;;2088870;28;20033;-91
2022/02/07 05:17:31;;;;;;;6.10;1.05;;;5.00;92.90;;;;;;2084269;28;20129;-92
2022/02/07 05:18:32;;;;;;;8.82;1.38;;;5.00;92.90;;;;;;2087778;28;20099;-91
2022/02/07 05:19:32;;;;;;;8.55;1.63;;;5.00;92.90;;;;;;2086330;28;20053;-91
2022/02/07 05:20:33;;;;;;;8.00;1.30;;;5.00;92.90;;;;;;2090631;28;20491;-91
2022/02/07 05:21:33;;;;;;;7.78;1.08;;;5.00;92.90;;;;;;2086708;28;20112;-91
2022/02/07 05:22:35;;;;;;;7.35;1.15;;;5.00;93.20;;;;;;2081293;28;20057;-90
2022/02/07 05:23:35;;;;;;;4.10;0.95;;;5.00;93.00;;;;;;2080554;28;20033;-91
2022/02/07 05:24:36;;;;;;;7.57;1.23;;;5.00;93.00;;;;;;2082138;28;20065;-91
2022/02/07 05:25:38;;;;;;;9.80;1.20;;;5.00;93.30;;;;;;2077676;28;20081;-94
2022/02/07 05:26:39;;;;;;;9.50;1.42;;;5.00;93.00;;;;;;2089660;28;20047;-92
2022/02/07 05:27:39;;;;;;;9.70;1.80;;;5.00;93.00;;;;;;2085613;28;20645;-91
2022/02/07 05:28:40;;;;;;;7.85;1.27;;;5.00;93.00;;;;;;2093419;28;20116;-90
2022/02/07 05:29:41;;;;;;;7.30;1.42;;;5.00;93.00;;;;;;2103080;28;20821;-91
2022/02/07 05:30:41;;;;;;;8.52;1.40;;;5.10;93.00;;;;;;2090139;28;20480;-91
2022/02/07 05:31:42;;;;;;;13.32;1.75;;;5.10;93.00;;;;;;2091328;28;20586;-91
2022/02/07 05:32:42;;;;;;;9.18;1.67;;;5.00;93.00;;;;;;2090336;28;20061;-90
2022/02/07 05:33:43;;;;;;;12.93;2.05;;;5.10;93.00;;;;;;2098462;28;20109;-91
2022/02/07 05:34:44;;;;;;;9.07;1.42;;;5.10;93.00;;;;;;2098807;28;20060;-90
2022/02/07 05:35:45;;;;;;;12.05;2.08;;;5.10;93.00;;;;;;2094771;28;20461;-91
2022/02/07 05:36:47;;;;;;;13.70;2.22;;;5.10;92.90;;;;;;2092449;28;20102;-91
2022/02/07 05:37:47;;;;;;;10.95;1.60;;;5.10;92.90;;;;;;2099437;28;20040;-90
2022/02/07 05:38:51;;;;;;;9.13;1.27;;;5.10;92.90;;;;;;2083737;28;21468;-90
2022/02/07 05:39:57;;;;;;;13.77;1.65;;;5.10;92.90;;;;;;2082425;28;20106;-91
2022/02/07 05:41:01;;;;;;;8.63;1.63;;;5.10;92.90;;;;;;2096764;28;20060;-91
2022/02/07 05:42:05;;;;;;;8.40;1.55;;;5.10;92.90;;;;;;2102711;28;20036;-91
2022/02/07 05:43:08;;;;;;;12.45;1.73;;;5.20;93.00;;;;;;2081173;28;20045;-92
2022/02/07 05:44:09;;;;;;;9.63;1.70;;;5.20;92.90;;;;;;2076419;28;20034;-91
2022/02/07 05:45:10;;;;;;;10.18;1.45;;;5.20;92.90;;;;;;2096757;28;20044;-91
2022/02/07 05:46:10;;;;;;;9.27;1.75;;;5.20;92.90;;;;;;2087690;28;20029;-91
2022/02/07 05:47:11;;;;;;;6.40;1.20;;;5.20;92.90;;;;;;2087277;28;20081;-90
2022/02/07 05:48:11;;;;;;;7.22;1.38;;;5.20;92.90;;;;;;2088743;28;20120;-90
2022/02/07 05:49:12;;;;;;;10.48;1.60;;;5.20;93.00;;;;;;2091444;28;20037;-90
2022/02/07 05:50:13;;;;;;;7.25;1.35;;;5.20;93.00;;;;;;2087698;28;20064;-90
2022/02/07 05:51:13;;;;;;;14.05;2.65;;;5.20;93.00;;;;;;2098853;28;20524;-90
2022/02/07 05:52:14;;;;;;;14.35;1.90;;;5.20;93.00;;;;;;2106950;28;20126;-90
2022/02/07 05:53:15;;;;;;;14.50;2.08;;;5.20;92.90;;;;;;2098369;28;20458;-91
2022/02/07 05:54:15;;;;;;;12.57;1.88;;;5.20;92.90;;;;;;2087472;28;20065;-90
2022/02/07 05:55:16;;;;;;;13.73;2.08;;;5.20;92.90;;;;;;2089767;28;20051;-90
2022/02/07 05:56:17;;;;;;;8.75;1.50;;;5.20;92.90;;;;;;2080184;28;20045;-91
2022/02/07 05:57:17;;;;;;;10.68;2.20;;;5.20;92.90;;;;;;2081323;28;20514;-91
2022/02/07 05:58:18;;;;;;;5.82;1.45;;;5.20;92.90;;;;;;2082568;28;20107;-90
2022/02/07 05:59:18;;;;;;;11.52;2.10;;;5.20;92.90;;;;;;2088953;28;20418;-90
2022/02/07 06:00:19;;;;;;;10.38;1.50;;;5.20;92.90;;;;;;2079147;28;20525;-90
2022/02/07 06:01:20;;;;;;;8.63;1.50;;;5.20;92.90;;;;;;2086400;28;20045;-90
2022/02/07 06:02:20;;;;;;;6.55;1.17;;;5.20;92.90;;;;;;2099247;28;20036;-90
2022/02/07 06:03:22;;;;;;;6.95;1.60;;;5.20;92.90;;;;;;2099320;28;20063;-89
2022/02/07 06:04:22;;;;;;;11.18;1.60;;;5.20;92.90;;;;;;2098040;28;20124;-93
2022/02/07 06:05:23;;;;;;;8.68;1.52;;;5.20;92.90;;;;;;2091750;28;20227;-89
2022/02/07 06:06:23;;;;;;;8.85;1.70;;;5.20;92.90;;;;;;2084293;28;20037;-90
2022/02/07 06:07:24;;;;;;;13.00;2.22;;;5.20;92.90;;;;;;2080485;28;20404;-87
2022/02/07 06:08:25;;;;;;;7.68;1.50;;;5.20;92.90;;;;;;2081114;28;20061;-90
2022/02/07 06:09:25;;;;;;;7.65;1.77;;;5.20;92.90;;;;;;2088770;28;20033;-91
2022/02/07 06:10:26;;;;;;;10.27;1.70;;;5.20;92.90;;;;;;2072997;28;20041;-90
2022/02/07 06:11:27;;;;;;;9.20;1.85;;;5.20;92.90;;;;;;2073223;28;20395;-90
2022/02/07 06:12:27;;;;;;;11.02;1.77;;;5.20;92.90;;;;;;2092540;28;20526;-91
2022/02/07 06:13:28;;;;;;;10.43;1.98;;;5.20;92.90;;;;;;2092171;28;20083;-90
2022/02/07 06:14:29;;;;;;;16.55;2.70;;;5.20;92.90;;;;;;2101394;28;20051;-90
2022/02/07 06:15:29;;;;;;;12.13;2.00;;;5.20;92.90;;;;;;2094227;28;20416;-90
2022/02/07 06:16:32;;;;;;;11.18;1.90;;;5.20;92.90;;;;;;2091491;28;20045;-90
2022/02/07 06:17:32;;;;;;;8.70;2.33;;;5.20;93.10;;;;;;2098222;28;20037;-90
2022/02/07 06:18:33;;;;;;;12.68;2.00;;;5.20;92.90;;;;;;2081313;28;20092;-89
2022/02/07 06:19:34;;;;;;;8.52;1.60;;;5.30;92.90;;;;;;2073142;28;20034;-91
2022/02/07 06:20:35;;;;;;;12.65;1.83;;;5.20;92.90;;;;;;2073807;28;20046;-90
2022/02/07 06:21:35;;;;;;;10.70;1.83;;;5.20;92.90;;;;;;2073342;28;20057;-90
2022/02/07 06:22:36;;;;;;;9.18;1.30;;;5.20;92.90;;;;;;2081343;28;20064;-89
2022/02/07 06:23:37;;;;;;;9.32;1.40;;;5.20;92.90;;;;;;2090191;28;20029;-89
2022/02/07 06:24:37;;;;;;;9.82;1.60;;;5.20;93.00;;;;;;2081944;28;20084;-90
2022/02/07 06:25:38;;;;;;;9.25;1.67;;;5.10;92.90;;;;;;2081952;28;20038;-90
2022/02/07 06:26:39;;;;;;;7.57;1.55;;;5.10;93.00;;;;;;2092894;28;20045;-90
2022/02/07 06:27:40;;;;;;;8.20;1.45;;;5.10;93.00;;;;;;2075411;28;20038;-90
2022/02/07 06:28:40;;;;;;;8.15;1.67;;;5.10;93.00;;;;;;2085559;28;20124;-89
2022/02/07 06:29:42;;;;;;;10.55;1.50;;;5.10;93.10;;;;;;2089698;28;20036;-90
2022/02/07 06:30:42;;;;;;;8.27;1.50;;;5.10;93.10;;;;;;2082464;28;20037;-90
2022/02/07 06:31:43;;;;;;;10.70;1.45;;;5.00;93.10;;;;;;2081930;28;20034;-91
2022/02/07 06:32:43;;;;;;;11.70;2.30;;;5.10;93.20;;;;;;2065996;28;20511;-91
2022/02/07 06:33:44;;;;;;;8.32;1.45;;;5.00;93.10;;;;;;2072306;28;20085;-91
2022/02/07 06:34:44;;;;;;;9.98;1.98;;;5.00;93.10;;;;;;2088018;28;20048;-91
2022/02/07 06:35:45;;;;;;;11.25;2.00;;;5.00;93.20;;;;;;2090754;28;20053;-90
2022/02/07 06:36:46;;;;;;;7.85;1.63;;;5.00;93.20;;;;;;2079685;28;20065;-91
2022/02/07 06:37:46;;;;;;;6.65;1.40;;;5.00;93.20;;;;;;2086055;28;20033;-91
2022/02/07 06:38:48;;;;;;;9.18;1.90;;;5.00;93.20;;;;;;2090064;28;20426;-90
2022/02/07 06:39:49;;;;;;;7.22;1.52;;;5.00;93.20;;;;;;2089390;28;20527;-90
2022/02/07 06:40:49;;;;;;;8.73;1.52;;;5.00;93.30;;;;;;2091001;28;20068;-90
2022/02/07 06:41:52;;;;;;;6.72;1.45;;;4.90;93.30;;;;;;2089961;28;20033;-90
2022/02/07 06:42:53;;;;;;;8.60;1.50;;;4.90;93.30;;;;;;2082024;28;20065;-90
2022/02/07 06:43:54;;;;;;;8.43;1.20;;;4.90;93.30;;;;;;2081998;28;20072;-90
2022/02/07 06:44:54;;;;;;;8.38;1.15;;;4.90;93.30;;;;;;2085764;28;20748;-91
2022/02/07 06:45:55;;;;;;;6.72;1.38;;;4.90;93.40;;;;;;2096802;28;20041;-90
2022/02/07 06:46:56;;;;;;;8.00;1.30;;;4.90;93.40;;;;;;2109928;28;20033;-90
2022/02/07 06:47:57;;;;;;;7.45;1.33;;;4.90;93.40;;;;;;2093362;28;20064;-89
2022/02/07 06:48:57;;;;;;;7.55;1.30;;;4.80;93.40;;;;;;2091681;28;20503;-91
2022/02/07 06:49:58;;;;;;;8.98;1.58;;;4.80;93.40;;;;;;2099812;28;20577;-91
2022/02/07 06:50:59;;;;;;;6.45;1.35;;;4.90;93.40;;;;;;2091533;28;20041;-91
2022/02/07 06:51:59;;;;;;;8.10;1.13;;;4.80;93.70;;;;;;2085990;28;20038;-90
2022/02/07 06:53:00;;;;;;;7.97;1.23;;;4.80;93.50;;;;;;2102509;28;20109;-90